메인 페이지
METAR-TAF:

METAR-TAF

공항 :

Fairmont Municipal Airport

Fairmont, 미네소타, 미국

위도: 43-39N, 경도: 094-25W, 고도: 354m

현재 날씨관측

예보는 45분 전, 20:56시(UTC)에 발표되었습니다.
12kt
온도 7°C
습도 93%
기압 1010 hPa
시정: 12.9km
고도 1200ft 상공 구름 많음
고도 1700ft 상공 흐림

METAR: KFRM 192056Z AUTO 36012KT 8SM BKN012 OVC017 07/06 A2982 RMK AO2 SLP106 T00720056 51031

시각: 16:41 (21:41 UTC)


TAF: 누락

4,000개 이상의 공항 관측 자료 및 예보 (METAR 및 TAF 보고).

지도상에서 검색 가능한 기상관측소가 노란 점과 빨간 점으로 표시되어 있습니다.

기상관측소 명을 보려면 표시 위로 마우스를 이동하세요.

날씨 관측과 예보를 보려면 클릭하세요.

지도 변경 : 확대하려면 엑스 표시가 있는 녹색 버튼, 축소하려면 빼기 표시가 있는 녹색 버튼, 다음 페이지의 지도를 보려면 녹색 화살표를 클릭하세요.


METAR-TAF: